Time;durP1;ratioP1;P1;durP2;ratioP2;P2;SDS_P1;SDS_P2;PMS_P1;PMS_P2;Temp;Humidity;BMP_temperature;BMP_pressure;BME280_temperature;BME280_humidity;BME280_pressure;Samples;Min_cycle;Max_cycle;Signal;HPM_P1;HPM_P2
2023/05/03 00:00:54;;;;;;;14.02;6.28;;;8.90;99.90;;;;;;5114965;28;20044;-62
2023/05/03 00:03:24;;;;;;;10.68;5.72;;;8.90;99.90;;;;;;5114793;28;20513;-62
2023/05/03 00:05:52;;;;;;;14.77;6.32;;;8.90;99.90;;;;;;5116039;28;20474;-62
2023/05/03 00:08:18;;;;;;;13.75;5.95;;;8.90;99.90;;;;;;5116091;28;20035;-62
2023/05/03 00:10:45;;;;;;;11.40;5.35;;;8.90;99.90;;;;;;5114866;28;20115;-62
2023/05/03 00:13:12;;;;;;;12.65;5.88;;;8.80;99.90;;;;;;5115550;28;20038;-62
2023/05/03 00:15:39;;;;;;;12.80;6.47;;;8.80;99.90;;;;;;5115585;28;20066;-61
2023/05/03 00:18:06;;;;;;;12.75;5.93;;;8.80;99.90;;;;;;5115642;27;20395;-63
2023/05/03 00:20:33;;;;;;;11.45;5.97;;;8.70;99.90;;;;;;5115332;28;20043;-62
2023/05/03 00:23:00;;;;;;;11.93;6.18;;;8.60;99.90;;;;;;5115686;28;20092;-62
2023/05/03 00:25:27;;;;;;;13.85;6.18;;;8.60;99.90;;;;;;5115705;28;20040;-62
2023/05/03 00:27:54;;;;;;;11.40;5.72;;;8.70;99.90;;;;;;5113856;28;20035;-61
2023/05/03 00:30:21;;;;;;;10.63;5.57;;;8.60;99.90;;;;;;5114987;28;20043;-63
2023/05/03 00:32:50;;;;;;;9.90;5.57;;;8.60;99.90;;;;;;5114061;28;20526;-63
2023/05/03 00:35:17;;;;;;;12.85;5.88;;;8.60;99.90;;;;;;5113811;28;20483;-61
2023/05/03 00:37:44;;;;;;;11.43;5.45;;;8.60;99.90;;;;;;5115332;28;20486;-61
2023/05/03 00:40:12;;;;;;;10.25;5.90;;;8.60;99.90;;;;;;5115069;28;20479;-61
2023/05/03 00:42:39;;;;;;;12.73;5.40;;;8.50;99.90;;;;;;5115154;28;20050;-61
2023/05/03 00:45:06;;;;;;;14.93;5.75;;;8.50;99.90;;;;;;5115002;28;20051;-60
2023/05/03 00:47:33;;;;;;;12.50;5.53;;;8.50;99.90;;;;;;5113547;28;20071;-62
2023/05/03 00:50:00;;;;;;;9.95;5.20;;;8.50;99.90;;;;;;5114938;28;20384;-60
2023/05/03 00:52:27;;;;;;;10.25;5.18;;;8.40;99.90;;;;;;5114648;28;20131;-61
2023/05/03 00:54:54;;;;;;;10.77;4.70;;;8.40;99.90;;;;;;5114622;28;20034;-62
2023/05/03 00:57:24;;;;;;;9.48;5.00;;;8.30;99.90;;;;;;5113066;28;20558;-62
2023/05/03 00:59:51;;;;;;;10.68;5.05;;;8.30;99.90;;;;;;5114414;28;20052;-61
2023/05/03 01:02:18;;;;;;;10.85;5.47;;;8.30;99.90;;;;;;5113537;28;20043;-62
2023/05/03 01:04:45;;;;;;;12.55;6.70;;;8.30;99.90;;;;;;5113333;28;20059;-61
2023/05/03 01:07:13;;;;;;;11.93;7.10;;;8.20;99.90;;;;;;5114630;28;20122;-63
2023/05/03 01:09:40;;;;;;;18.27;7.45;;;8.20;99.90;;;;;;5113536;28;20069;-61
2023/05/03 01:12:07;;;;;;;14.90;7.10;;;8.10;99.90;;;;;;5114794;28;20050;-63
2023/05/03 01:14:33;;;;;;;13.70;7.10;;;8.10;99.90;;;;;;5114713;28;20035;-61
2023/05/03 01:17:00;;;;;;;12.35;7.00;;;8.10;99.90;;;;;;5113411;28;20039;-62
2023/05/03 01:19:27;;;;;;;10.95;6.50;;;8.10;99.90;;;;;;5114043;28;20039;-62
2023/05/03 01:21:54;;;;;;;10.45;5.97;;;8.10;99.90;;;;;;5112946;28;20033;-61
2023/05/03 01:24:21;;;;;;;14.88;6.57;;;8.00;99.90;;;;;;5113157;28;20043;-61
2023/05/03 01:26:48;;;;;;;12.15;5.75;;;8.00;99.90;;;;;;5113447;28;20036;-62
2023/05/03 01:29:15;;;;;;;16.67;5.72;;;8.00;99.90;;;;;;5113165;28;20052;-61
2023/05/03 01:31:41;;;;;;;11.27;5.47;;;8.00;99.90;;;;;;5112775;28;20075;-62
2023/05/03 01:34:09;;;;;;;10.23;5.85;;;8.00;99.90;;;;;;5114183;28;20119;-62
2023/05/03 01:36:36;;;;;;;10.95;6.50;;;8.00;99.90;;;;;;5113241;28;20039;-61
2023/05/03 01:39:03;;;;;;;10.32;5.88;;;8.00;99.90;;;;;;5114366;28;20044;-62
2023/05/03 01:41:30;;;;;;;10.10;5.60;;;8.00;99.90;;;;;;5113795;28;20048;-63
2023/05/03 01:43:56;;;;;;;12.05;6.63;;;8.00;99.90;;;;;;5112973;28;20438;-62
2023/05/03 01:46:23;;;;;;;10.80;5.57;;;8.00;99.90;;;;;;5113872;28;20085;-61
2023/05/03 01:48:50;;;;;;;11.70;6.05;;;8.00;99.90;;;;;;5114182;28;20035;-61
2023/05/03 01:51:17;;;;;;;13.32;6.20;;;7.90;99.90;;;;;;5114038;28;20044;-61
2023/05/03 01:53:43;;;;;;;11.48;6.15;;;7.90;99.90;;;;;;5114266;28;20459;-61
2023/05/03 01:56:10;;;;;;;12.25;5.97;;;7.90;99.90;;;;;;5114069;28;20428;-60
2023/05/03 01:58:37;;;;;;;13.48;6.72;;;7.90;99.90;;;;;;5112914;28;20593;-62
2023/05/03 02:01:05;;;;;;;11.52;6.38;;;7.90;99.90;;;;;;5112675;28;20551;-61
2023/05/03 02:03:32;;;;;;;11.80;6.30;;;7.90;99.90;;;;;;5114158;28;20086;-61
2023/05/03 02:05:59;;;;;;;11.57;6.55;;;7.80;99.90;;;;;;5095672;28;20129;-62
2023/05/03 02:08:27;;;;;;;11.50;7.05;;;7.80;99.90;;;;;;5112672;28;20089;-61
2023/05/03 02:10:54;;;;;;;13.30;7.10;;;7.80;99.90;;;;;;5114044;28;20048;-62
2023/05/03 02:13:21;;;;;;;14.07;6.80;;;7.80;99.90;;;;;;5113551;28;20114;-62
2023/05/03 02:15:47;;;;;;;17.40;7.38;;;7.70;99.90;;;;;;5113720;28;20362;-61
2023/05/03 02:18:15;;;;;;;12.05;6.90;;;7.70;99.90;;;;;;5113430;28;20052;-61
2023/05/03 02:20:42;;;;;;;13.98;7.25;;;7.60;99.90;;;;;;5113668;28;20439;-62
2023/05/03 02:23:08;;;;;;;11.55;6.50;;;7.60;99.90;;;;;;5112241;28;20048;-61
2023/05/03 02:25:35;;;;;;;14.30;6.97;;;7.60;99.90;;;;;;5113734;28;20074;-60
2023/05/03 02:28:02;;;;;;;16.35;7.30;;;7.60;99.90;;;;;;5113569;28;20036;-61
2023/05/03 02:30:28;;;;;;;14.05;7.18;;;7.60;99.90;;;;;;5113585;28;20039;-62
2023/05/03 02:32:55;;;;;;;12.68;7.13;;;7.60;99.90;;;;;;5112573;28;20071;-60
2023/05/03 02:35:22;;;;;;;15.07;7.13;;;7.60;99.90;;;;;;5116178;28;20088;-63
2023/05/03 02:37:49;;;;;;;13.82;6.85;;;7.50;99.90;;;;;;5117483;28;20070;-61
2023/05/03 02:40:16;;;;;;;10.70;7.05;;;7.50;99.90;;;;;;5116343;28;20453;-61
2023/05/03 02:42:45;;;;;;;14.90;7.32;;;7.50;99.90;;;;;;5116406;28;20039;-61
2023/05/03 02:45:19;;;;;;;10.38;6.95;;;7.50;99.90;;;;;;5115985;28;20134;-60
2023/05/03 02:47:46;;;;;;;13.65;6.57;;;7.40;99.90;;;;;;5117046;28;20055;-60
2023/05/03 02:50:14;;;;;;;10.82;6.55;;;7.40;99.90;;;;;;5115749;28;20046;-61
2023/05/03 02:52:41;;;;;;;14.05;6.97;;;7.40;99.90;;;;;;5115907;28;20438;-61
2023/05/03 02:55:07;;;;;;;12.50;6.72;;;7.30;99.90;;;;;;5115549;28;20032;-61
2023/05/03 02:57:35;;;;;;;11.85;6.68;;;7.30;99.90;;;;;;5115777;28;20512;-62
2023/05/03 03:00:04;;;;;;;15.05;7.38;;;7.30;99.90;;;;;;5115812;28;20044;-61
2023/05/03 03:02:32;;;;;;;12.07;7.15;;;7.30;99.90;;;;;;5115994;28;20131;-61
2023/05/03 03:04:59;;;;;;;11.65;7.28;;;7.30;99.90;;;;;;5116879;28;20042;-60
2023/05/03 03:07:27;;;;;;;13.20;7.13;;;7.30;99.90;;;;;;5115965;28;20040;-62
2023/05/03 03:09:56;;;;;;;12.52;7.53;;;7.20;99.90;;;;;;5099325;28;20501;-62
2023/05/03 03:12:25;;;;;;;16.75;8.10;;;7.20;99.90;;;;;;5115702;28;20047;-61
2023/05/03 03:14:52;;;;;;;18.98;6.90;;;7.20;99.90;;;;;;5115775;28;20050;-61
2023/05/03 03:17:19;;;;;;;14.20;7.32;;;7.10;99.90;;;;;;5116830;28;20067;-62
2023/05/03 03:19:46;;;;;;;14.55;7.82;;;7.10;99.90;;;;;;5115540;28;20063;-61
2023/05/03 03:22:13;;;;;;;10.95;6.53;;;7.10;99.90;;;;;;5115494;28;20157;-61
2023/05/03 03:24:40;;;;;;;12.45;7.00;;;7.20;99.90;;;;;;5116585;28;20050;-61
2023/05/03 03:27:07;;;;;;;16.45;7.65;;;7.20;99.90;;;;;;5115256;28;20432;-62
2023/05/03 03:29:33;;;;;;;12.85;7.45;;;7.20;99.90;;;;;;5116343;28;20039;-62
2023/05/03 03:32:00;;;;;;;13.57;7.32;;;7.10;99.90;;;;;;5116435;28;20118;-62
2023/05/03 03:34:28;;;;;;;17.90;7.93;;;7.10;99.90;;;;;;5114882;28;20031;-62
2023/05/03 03:36:55;;;;;;;12.75;7.40;;;7.10;99.90;;;;;;5114854;28;20067;-61
2023/05/03 03:39:21;;;;;;;13.82;7.90;;;7.10;99.90;;;;;;5115940;28;20127;-61
2023/05/03 03:41:48;;;;;;;15.73;8.65;;;7.00;99.90;;;;;;5114877;28;20055;-61
2023/05/03 03:44:15;;;;;;;17.42;8.05;;;7.00;99.90;;;;;;5116141;28;20480;-60
2023/05/03 03:46:42;;;;;;;12.60;7.25;;;7.00;99.90;;;;;;5114621;28;20135;-60
2023/05/03 03:49:09;;;;;;;12.45;7.43;;;7.00;99.90;;;;;;5114615;28;20050;-61
2023/05/03 03:51:37;;;;;;;15.20;8.52;;;7.00;99.90;;;;;;5116275;28;20114;-61
2023/05/03 03:54:04;;;;;;;11.70;7.10;;;7.00;99.90;;;;;;5114375;28;20062;-61
2023/05/03 03:56:35;;;;;;;16.67;7.80;;;6.90;99.90;;;;;;5114846;28;20443;-61
2023/05/03 03:59:02;;;;;;;13.73;7.20;;;6.90;99.90;;;;;;5114203;28;20514;-61
2023/05/03 04:01:29;;;;;;;14.98;7.65;;;6.90;99.90;;;;;;5114447;28;20496;-61
2023/05/03 04:03:56;;;;;;;13.30;7.70;;;6.90;99.90;;;;;;5115945;28;20120;-60
2023/05/03 04:06:23;;;;;;;14.70;7.93;;;6.90;99.90;;;;;;5115808;28;20051;-61
2023/05/03 04:08:50;;;;;;;9.70;6.88;;;6.90;99.90;;;;;;5114148;28;20055;-61
2023/05/03 04:11:17;;;;;;;15.07;7.65;;;6.90;99.90;;;;;;5114215;28;20439;-61
2023/05/03 04:13:50;;;;;;;11.85;6.75;;;6.80;99.90;;;;;;5113997;28;20048;-61
2023/05/03 04:16:17;;;;;;;10.52;6.82;;;6.80;99.90;;;;;;5113961;28;20040;-60
2023/05/03 04:18:48;;;;;;;15.05;7.28;;;6.80;99.90;;;;;;5098226;28;20367;-61
2023/05/03 04:21:15;;;;;;;13.48;6.70;;;6.80;99.90;;;;;;5115119;28;20051;-60
2023/05/03 04:23:42;;;;;;;12.43;7.20;;;6.70;99.90;;;;;;5113893;28;20062;-60
2023/05/03 04:26:11;;;;;;;12.23;7.55;;;6.70;99.90;;;;;;5114447;28;20124;-60
2023/05/03 04:28:58;;;;;;;15.07;7.72;;;6.70;99.90;;;;;;5113689;28;20039;-61
2023/05/03 04:31:25;;;;;;;10.60;7.07;;;6.70;99.90;;;;;;5097099;28;20067;-61
2023/05/03 04:33:53;;;;;;;14.65;7.82;;;6.70;99.90;;;;;;5114313;28;20096;-60
2023/05/03 04:36:24;;;;;;;16.60;7.88;;;6.60;99.90;;;;;;5114180;28;20039;-60
2023/05/03 04:38:53;;;;;;;17.25;9.13;;;6.60;99.90;;;;;;5114206;28;20044;-64
2023/05/03 04:41:20;;;;;;;13.55;8.60;;;6.60;99.90;;;;;;5113926;28;20677;-62
2023/05/03 04:43:47;;;;;;;14.98;8.82;;;6.60;99.90;;;;;;5114250;28;20047;-64
2023/05/03 04:46:15;;;;;;;15.27;9.77;;;6.60;99.90;;;;;;5113427;28;20078;-62
2023/05/03 04:48:43;;;;;;;21.27;9.65;;;6.60;99.90;;;;;;5113617;28;20437;-61
2023/05/03 04:51:10;;;;;;;16.05;9.32;;;6.60;99.90;;;;;;5114853;28;20054;-62
2023/05/03 04:53:37;;;;;;;15.43;10.00;;;6.60;99.90;;;;;;5114991;28;20043;-62
2023/05/03 04:56:09;;;;;;;15.38;8.90;;;6.70;99.90;;;;;;5113212;28;20035;-62
2023/05/03 04:58:38;;;;;;;15.02;9.18;;;6.70;99.90;;;;;;5114491;28;20043;-62
2023/05/03 05:01:06;;;;;;;16.08;9.07;;;6.80;99.90;;;;;;5113388;28;20047;-62
2023/05/03 05:03:33;;;;;;;16.27;8.73;;;6.80;99.90;;;;;;5113709;28;20147;-62
2023/05/03 05:06:08;;;;;;;14.35;7.95;;;6.80;99.90;;;;;;5113724;28;20039;-62
2023/05/03 05:08:37;;;;;;;12.30;7.32;;;6.80;99.90;;;;;;5114613;28;20034;-61
2023/05/03 05:11:07;;;;;;;13.60;7.00;;;6.90;99.90;;;;;;5113170;28;20038;-62
2023/05/03 05:13:35;;;;;;;13.82;7.50;;;6.90;99.90;;;;;;5113585;28;20040;-62
2023/05/03 05:16:02;;;;;;;11.98;6.78;;;7.00;99.90;;;;;;5114773;27;20088;-63
2023/05/03 05:18:30;;;;;;;12.95;7.30;;;7.00;99.90;;;;;;5113297;28;20155;-63
2023/05/03 05:20:59;;;;;;;9.55;6.95;;;7.10;99.90;;;;;;5113101;28;20044;-64
2023/05/03 05:23:26;;;;;;;11.75;6.82;;;7.10;99.90;;;;;;5113206;28;20048;-63
2023/05/03 05:25:53;;;;;;;15.68;7.00;;;7.20;99.90;;;;;;5113164;28;20126;-63
2023/05/03 05:28:20;;;;;;;15.07;7.10;;;7.20;99.90;;;;;;5113359;28;20035;-64
2023/05/03 05:30:47;;;;;;;19.30;7.35;;;7.30;99.90;;;;;;5113441;28;20035;-63
2023/05/03 05:33:14;;;;;;;13.00;6.53;;;7.40;99.90;;;;;;5113133;28;20040;-66
2023/05/03 05:35:45;;;;;;;14.70;6.72;;;7.50;99.90;;;;;;5112798;28;20044;-66
2023/05/03 05:38:12;;;;;;;13.63;6.78;;;7.60;99.90;;;;;;5113071;28;20039;-66
2023/05/03 05:40:39;;;;;;;12.77;7.20;;;7.60;99.90;;;;;;5112855;28;20036;-66
2023/05/03 05:43:06;;;;;;;16.38;7.07;;;7.60;99.90;;;;;;5113482;28;20042;-65
2023/05/03 05:45:35;;;;;;;13.00;7.10;;;7.70;99.90;;;;;;5113264;28;20063;-66
2023/05/03 05:48:03;;;;;;;14.40;6.80;;;7.70;99.90;;;;;;5112879;28;20096;-66
2023/05/03 05:50:32;;;;;;;11.63;6.88;;;7.60;99.90;;;;;;5113053;28;20039;-66
2023/05/03 05:53:05;;;;;;;13.90;6.68;;;7.60;99.90;;;;;;5113692;28;20040;-67
2023/05/03 05:55:35;;;;;;;12.77;6.97;;;7.60;99.90;;;;;;5096529;28;20495;-68
2023/05/03 05:58:02;;;;;;;11.60;6.22;;;7.60;99.90;;;;;;5112589;28;20047;-67
2023/05/03 06:00:39;;;;;;;12.52;5.88;;;7.60;99.90;;;;;;5112440;28;20039;-65
2023/05/03 06:03:06;;;;;;;13.15;6.50;;;7.70;99.90;;;;;;5113751;28;20070;-64
2023/05/03 06:05:33;;;;;;;11.45;5.70;;;7.70;99.90;;;;;;5112467;28;20041;-66
2023/05/03 06:08:00;;;;;;;9.82;5.78;;;7.70;99.90;;;;;;5114111;28;20470;-64
2023/05/03 06:10:27;;;;;;;12.68;6.38;;;7.80;99.90;;;;;;5117846;28;20038;-66
2023/05/03 06:12:55;;;;;;;11.13;6.50;;;7.80;99.90;;;;;;5116646;28;20122;-66
2023/05/03 06:15:25;;;;;;;11.68;6.30;;;7.90;99.90;;;;;;5099880;28;20047;-65
2023/05/03 06:17:52;;;;;;;14.38;5.88;;;7.90;99.90;;;;;;5116518;28;20092;-65
2023/05/03 06:20:19;;;;;;;8.73;6.07;;;8.00;99.90;;;;;;5117679;28;20039;-65
2023/05/03 06:22:47;;;;;;;11.50;6.70;;;8.00;99.90;;;;;;5116342;28;20051;-66
2023/05/03 06:25:14;;;;;;;13.32;6.10;;;8.00;99.90;;;;;;5116269;28;20067;-65
2023/05/03 06:27:47;;;;;;;14.48;6.25;;;8.10;99.90;;;;;;5117563;28;20070;-64
2023/05/03 06:30:15;;;;;;;13.70;6.45;;;8.10;99.90;;;;;;5115991;28;20047;-65
2023/05/03 06:32:43;;;;;;;11.48;5.82;;;8.10;99.90;;;;;;5116587;28;20040;-67
2023/05/03 06:35:11;;;;;;;12.50;5.90;;;8.20;99.90;;;;;;5116359;28;20048;-64
2023/05/03 06:37:39;;;;;;;14.77;5.72;;;8.20;99.90;;;;;;5116143;28;20042;-65
2023/05/03 06:40:23;;;;;;;11.55;6.03;;;8.30;99.90;;;;;;5101884;28;20059;-64
2023/05/03 06:42:50;;;;;;;15.82;5.85;;;8.30;99.90;;;;;;5115973;28;20052;-65
2023/05/03 06:45:40;;;;;;;11.68;6.40;;;8.30;99.90;;;;;;5117050;28;20043;-66
2023/05/03 06:48:07;;;;;;;13.10;6.57;;;8.40;99.90;;;;;;5115821;28;20058;-65
2023/05/03 06:50:34;;;;;;;11.35;6.68;;;8.40;99.90;;;;;;5115591;28;20043;-64
2023/05/03 06:53:01;;;;;;;15.90;6.80;;;8.50;99.90;;;;;;5115559;28;20126;-65
2023/05/03 06:55:28;;;;;;;20.30;7.38;;;8.50;99.90;;;;;;5115758;28;20046;-66
2023/05/03 06:57:55;;;;;;;13.07;7.35;;;8.60;99.90;;;;;;5117002;28;20036;-65
2023/05/03 07:00:22;;;;;;;20.45;7.32;;;8.70;99.90;;;;;;5115677;28;20044;-67
2023/05/03 07:02:48;;;;;;;16.65;8.10;;;8.70;99.90;;;;;;5117050;28;20035;-67
2023/05/03 07:05:16;;;;;;;16.88;10.02;;;8.80;99.90;;;;;;5116861;28;20046;-66
2023/05/03 07:07:48;;;;;;;17.63;8.45;;;8.90;99.90;;;;;;5117057;28;20119;-66
2023/05/03 07:10:15;;;;;;;16.63;8.65;;;8.90;99.90;;;;;;5116515;28;20382;-65
2023/05/03 07:12:51;;;;;;;16.90;8.70;;;9.00;99.90;;;;;;5106537;28;20126;-64
2023/05/03 07:15:21;;;;;;;14.98;8.18;;;9.00;99.90;;;;;;5106573;28;20044;-64
2023/05/03 07:17:48;;;;;;;17.85;8.93;;;9.20;99.90;;;;;;5093098;28;20657;-65
2023/05/03 07:20:14;;;;;;;14.73;7.97;;;9.20;99.90;;;;;;5093593;28;20054;-67
2023/05/03 07:22:41;;;;;;;14.25;8.10;;;9.30;99.90;;;;;;5093738;28;20047;-66
2023/05/03 07:25:11;;;;;;;16.52;8.15;;;9.40;99.90;;;;;;5093622;28;20697;-64
2023/05/03 07:27:38;;;;;;;13.98;7.93;;;9.40;99.90;;;;;;5093670;28;20075;-62
2023/05/03 07:30:05;;;;;;;15.82;8.20;;;9.50;99.90;;;;;;5093656;28;20600;-65
2023/05/03 07:32:32;;;;;;;17.30;8.18;;;9.50;99.90;;;;;;5093729;28;20040;-67
2023/05/03 07:34:59;;;;;;;12.00;7.68;;;9.60;99.90;;;;;;5093465;28;20036;-65
2023/05/03 07:37:26;;;;;;;17.17;7.45;;;9.60;99.90;;;;;;5098720;28;20119;-64
2023/05/03 07:39:53;;;;;;;16.02;8.45;;;9.70;99.90;;;;;;5115341;28;20039;-66
2023/05/03 07:42:20;;;;;;;16.75;8.75;;;9.80;99.90;;;;;;5115378;28;20040;-64
2023/05/03 07:44:47;;;;;;;16.42;9.07;;;10.00;99.90;;;;;;5114083;28;20036;-66
2023/05/03 07:47:16;;;;;;;16.58;8.75;;;10.10;99.90;;;;;;5114992;28;20123;-66
2023/05/03 07:49:44;;;;;;;19.13;8.80;;;10.20;99.90;;;;;;5092800;28;20441;-67
2023/05/03 07:52:10;;;;;;;13.15;8.35;;;10.30;99.90;;;;;;5095484;28;20107;-67
2023/05/03 07:54:37;;;;;;;14.57;8.77;;;10.50;99.90;;;;;;5095347;28;20115;-67
2023/05/03 07:57:06;;;;;;;14.30;9.13;;;10.60;99.90;;;;;;5095293;28;20036;-65
2023/05/03 07:59:34;;;;;;;14.73;9.52;;;10.70;99.90;;;;;;5101794;28;20044;-64
2023/05/03 08:02:01;;;;;;;16.67;9.48;;;10.80;99.90;;;;;;5094942;28;20518;-65
2023/05/03 08:04:28;;;;;;;16.15;8.98;;;10.80;99.90;;;;;;5093237;28;20578;-67
2023/05/03 08:06:55;;;;;;;16.50;9.07;;;10.90;99.90;;;;;;5095090;28;20050;-63
2023/05/03 08:09:23;;;;;;;18.52;10.30;;;11.00;99.90;;;;;;5106752;28;20039;-65
2023/05/03 08:11:50;;;;;;;13.05;9.38;;;11.00;99.90;;;;;;5113250;28;20589;-66
2023/05/03 08:14:17;;;;;;;16.10;9.10;;;11.10;99.90;;;;;;5114372;28;20046;-64
2023/05/03 08:16:44;;;;;;;32.95;11.07;;;11.10;99.90;;;;;;5114589;28;20237;-66
2023/05/03 08:19:11;;;;;;;16.52;9.93;;;11.20;99.90;;;;;;5096660;28;20450;-66
2023/05/03 08:21:38;;;;;;;18.73;10.15;;;11.30;99.90;;;;;;5097319;28;20106;-67
2023/05/03 08:24:05;;;;;;;15.48;9.85;;;11.40;99.90;;;;;;5096789;28;20379;-66
2023/05/03 08:26:32;;;;;;;16.48;9.95;;;11.50;99.90;;;;;;5094802;28;20048;-65
2023/05/03 08:28:59;;;;;;;18.23;10.38;;;11.50;99.90;;;;;;5110673;28;20119;-68
2023/05/03 08:31:26;;;;;;;18.48;10.05;;;11.60;99.90;;;;;;5113434;28;20042;-67
2023/05/03 08:33:53;;;;;;;66.18;57.22;;;11.70;99.90;;;;;;5113971;28;20036;-66
2023/05/03 08:36:20;;;;;;;18.02;11.30;;;11.70;99.90;;;;;;5107991;28;20040;-68
2023/05/03 08:38:47;;;;;;;19.35;11.07;;;11.70;99.90;;;;;;5099970;28;20098;-67
2023/05/03 08:41:14;;;;;;;15.02;10.15;;;11.70;99.90;;;;;;5087648;28;20044;-62
2023/05/03 08:43:45;;;;;;;16.52;10.13;;;11.50;99.90;;;;;;5101489;28;20058;-65
2023/05/03 08:46:15;;;;;;;14.82;10.00;;;11.50;99.90;;;;;;5113900;28;20051;-67
2023/05/03 08:48:47;;;;;;;15.82;9.85;;;11.50;99.90;;;;;;5113951;28;20093;-65
2023/05/03 08:51:15;;;;;;;18.88;9.85;;;11.60;99.90;;;;;;5113710;28;20046;-67
2023/05/03 08:53:45;;;;;;;19.08;9.70;;;11.70;99.90;;;;;;5113912;28;20035;-66
2023/05/03 08:56:12;;;;;;;15.55;8.40;;;11.80;99.90;;;;;;5111981;28;20894;-68
2023/05/03 08:59:18;;;;;;;14.90;8.67;;;11.70;99.90;;;;;;5093928;28;20181;-67
2023/05/03 09:01:45;;;;;;;16.35;7.80;;;11.70;99.90;;;;;;5093606;28;20809;-66
2023/05/03 09:04:11;;;;;;;14.35;7.32;;;11.80;99.90;;;;;;5093688;28;20068;-66
2023/05/03 09:06:38;;;;;;;13.40;7.85;;;12.00;99.90;;;;;;5099881;28;20093;-66
2023/05/03 09:09:09;;;;;;;19.25;7.53;;;12.10;99.90;;;;;;5093585;28;20040;-68
2023/05/03 09:11:36;;;;;;;13.02;8.23;;;12.20;99.90;;;;;;5093449;28;20040;-67
2023/05/03 09:14:03;;;;;;;11.18;7.00;;;12.20;99.90;;;;;;5096717;27;20061;-66
2023/05/03 09:16:30;;;;;;;14.93;7.45;;;12.30;99.90;;;;;;5115325;27;20051;-67
2023/05/03 09:18:57;;;;;;;14.18;7.38;;;12.40;99.90;;;;;;5113264;28;20031;-65
2023/05/03 09:21:24;;;;;;;11.45;6.90;;;12.50;99.90;;;;;;5113391;28;20475;-67
2023/05/03 09:23:51;;;;;;;11.43;6.68;;;12.60;99.90;;;;;;5113260;28;20040;-64
2023/05/03 09:26:18;;;;;;;10.02;6.47;;;12.70;99.90;;;;;;5113077;28;20482;-67
2023/05/03 09:28:44;;;;;;;11.48;6.65;;;12.70;99.90;;;;;;5113581;28;20439;-66
2023/05/03 09:31:11;;;;;;;17.42;6.45;;;12.80;99.90;;;;;;5111918;28;20487;-68
2023/05/03 09:33:39;;;;;;;11.80;7.30;;;12.90;99.90;;;;;;5113090;28;20050;-68
2023/05/03 09:36:06;;;;;;;14.18;6.63;;;12.90;99.40;;;;;;5113194;28;20050;-64
2023/05/03 09:38:46;;;;;;;12.82;6.60;;;12.90;99.10;;;;;;5111065;28;20143;-65
2023/05/03 09:41:13;;;;;;;13.02;6.90;;;12.90;99.30;;;;;;5113325;28;20036;-68
2023/05/03 09:43:40;;;;;;;12.38;6.60;;;13.00;99.30;;;;;;5113353;28;20032;-67
2023/05/03 09:46:07;;;;;;;13.02;6.03;;;12.90;99.60;;;;;;5113025;28;20452;-66
2023/05/03 09:48:34;;;;;;;13.75;6.57;;;12.90;99.50;;;;;;5113338;28;20035;-67
2023/05/03 09:51:01;;;;;;;12.18;5.85;;;12.90;99.80;;;;;;5112748;28;20039;-65
2023/05/03 09:53:27;;;;;;;9.75;5.82;;;12.90;99.70;;;;;;5113364;28;20547;-64
2023/05/03 09:55:55;;;;;;;11.30;6.28;;;13.00;99.80;;;;;;5113339;28;20109;-66
2023/05/03 09:58:26;;;;;;;11.80;6.03;;;13.10;99.60;;;;;;5113193;28;20036;-65
2023/05/03 10:00:53;;;;;;;14.98;5.95;;;13.10;99.60;;;;;;5113173;28;20135;-67
2023/05/03 10:03:20;;;;;;;10.55;6.30;;;13.10;99.30;;;;;;5112864;28;20486;-66
2023/05/03 10:05:47;;;;;;;13.15;5.75;;;13.00;99.50;;;;;;5111542;28;20055;-67
2023/05/03 10:08:14;;;;;;;13.40;5.85;;;13.20;99.50;;;;;;5110281;28;20044;-64
2023/05/03 10:10:41;;;;;;;10.82;5.28;;;13.30;99.40;;;;;;5111091;28;20674;-63
2023/05/03 10:13:08;;;;;;;16.05;6.30;;;13.50;98.90;;;;;;5111432;28;20061;-66
2023/05/03 10:15:38;;;;;;;12.00;5.50;;;13.60;99.50;;;;;;5111124;28;20509;-65
2023/05/03 10:18:10;;;;;;;10.57;5.90;;;13.70;98.70;;;;;;5110982;28;20071;-66
2023/05/03 10:20:37;;;;;;;11.88;5.72;;;13.60;98.50;;;;;;5093533;28;20454;-64
2023/05/03 10:23:04;;;;;;;10.63;5.82;;;13.50;98.50;;;;;;5112097;28;20490;-65
2023/05/03 10:25:31;;;;;;;13.70;6.00;;;13.60;98.60;;;;;;5092985;28;20090;-66
2023/05/03 10:27:58;;;;;;;11.20;5.70;;;13.60;98.60;;;;;;5101298;28;20059;-63
2023/05/03 10:30:25;;;;;;;12.55;4.90;;;13.80;98.90;;;;;;5092868;28;20036;-65
2023/05/03 10:32:52;;;;;;;9.65;5.22;;;14.00;99.00;;;;;;5093244;28;20467;-65
2023/05/03 10:35:19;;;;;;;11.25;6.03;;;14.10;98.60;;;;;;5092953;28;20044;-65
2023/05/03 10:37:46;;;;;;;12.60;5.32;;;14.20;98.50;;;;;;5092903;28;20073;-64
2023/05/03 10:40:12;;;;;;;10.05;6.00;;;14.20;98.10;;;;;;5092755;28;20123;-66
2023/05/03 10:42:40;;;;;;;10.80;4.95;;;14.10;98.30;;;;;;5092963;28;20067;-66
2023/05/03 10:45:07;;;;;;;11.45;5.53;;;14.10;98.40;;;;;;5101682;28;20119;-68
2023/05/03 10:47:34;;;;;;;21.42;5.97;;;14.10;98.60;;;;;;5092756;28;20051;-65
2023/05/03 10:50:01;;;;;;;18.20;6.57;;;14.10;98.60;;;;;;5092970;28;20036;-68
2023/05/03 10:52:28;;;;;;;10.93;5.32;;;14.10;98.40;;;;;;5112080;28;20097;-65
2023/05/03 10:54:55;;;;;;;10.75;5.30;;;14.00;98.60;;;;;;5114200;28;20036;-65
2023/05/03 10:57:23;;;;;;;11.15;5.43;;;14.10;98.60;;;;;;5115275;28;20028;-65
2023/05/03 10:59:51;;;;;;;14.60;5.85;;;14.10;98.60;;;;;;5116328;28;20044;-65
2023/05/03 11:02:20;;;;;;;9.02;5.70;;;14.10;98.60;;;;;;5116493;28;20039;-66
2023/05/03 11:04:47;;;;;;;9.73;5.55;;;14.00;98.30;;;;;;5116435;28;20051;-65
2023/05/03 11:07:14;;;;;;;10.32;5.38;;;13.90;98.50;;;;;;5116289;28;20126;-66
2023/05/03 11:09:41;;;;;;;16.83;5.80;;;13.80;99.00;;;;;;5116203;28;20035;-65
2023/05/03 11:12:08;;;;;;;11.25;5.93;;;13.70;99.20;;;;;;5116166;28;20035;-64
2023/05/03 11:14:35;;;;;;;11.18;6.00;;;13.70;99.50;;;;;;5116176;28;20039;-64
2023/05/03 11:17:05;;;;;;;14.07;5.97;;;13.70;99.20;;;;;;5116441;28;20046;-66
2023/05/03 11:19:38;;;;;;;11.57;5.80;;;13.60;99.30;;;;;;5115997;28;20035;-68
2023/05/03 11:22:06;;;;;;;11.05;5.57;;;13.60;99.10;;;;;;5096332;28;20115;-68
2023/05/03 11:24:37;;;;;;;12.25;5.65;;;13.60;99.60;;;;;;5096432;28;20038;-64
2023/05/03 11:27:04;;;;;;;12.75;6.10;;;13.80;99.20;;;;;;5096728;28;20044;-62
2023/05/03 11:29:34;;;;;;;15.85;5.93;;;13.90;99.30;;;;;;5103776;28;20036;-61
2023/05/03 11:32:01;;;;;;;19.10;6.85;;;14.10;99.30;;;;;;5115926;28;20035;-61
2023/05/03 11:34:27;;;;;;;10.68;6.10;;;14.00;99.10;;;;;;5115465;28;20040;-62
2023/05/03 11:36:54;;;;;;;13.80;6.20;;;14.00;99.20;;;;;;5115456;28;20122;-63
2023/05/03 11:39:21;;;;;;;14.90;6.38;;;14.20;99.00;;;;;;5115645;28;20398;-63
2023/05/03 11:41:48;;;;;;;11.07;6.00;;;14.20;99.00;;;;;;5115395;28;20061;-62
2023/05/03 11:44:15;;;;;;;14.30;5.80;;;14.20;99.30;;;;;;5113923;28;20048;-62
2023/05/03 11:46:44;;;;;;;12.18;6.60;;;14.30;99.30;;;;;;5115147;28;20059;-63
2023/05/03 11:49:12;;;;;;;13.15;6.18;;;14.40;98.90;;;;;;5115280;27;20051;-62
2023/05/03 11:51:38;;;;;;;11.88;6.40;;;14.40;99.00;;;;;;5113787;28;20632;-63
2023/05/03 11:54:05;;;;;;;13.30;6.07;;;14.60;98.80;;;;;;5114189;28;20058;-62
2023/05/03 11:56:50;;;;;;;16.47;6.90;;;14.70;98.60;;;;;;5115316;28;20126;-64
2023/05/03 11:59:18;;;;;;;15.27;7.47;;;14.70;98.00;;;;;;5115033;28;20039;-63
2023/05/03 12:01:48;;;;;;;13.27;6.40;;;14.50;98.40;;;;;;5114948;28;20047;-63
2023/05/03 12:04:15;;;;;;;15.85;6.25;;;14.50;98.60;;;;;;5115240;28;20051;-62
2023/05/03 12:06:47;;;;;;;14.35;6.57;;;14.50;98.20;;;;;;5115297;28;20047;-64
2023/05/03 12:09:15;;;;;;;16.02;6.97;;;14.50;98.40;;;;;;5115158;28;20044;-63
2023/05/03 12:11:44;;;;;;;13.15;6.80;;;14.50;98.40;;;;;;5114905;28;20134;-63
2023/05/03 12:14:14;;;;;;;9.88;6.47;;;14.50;97.90;;;;;;5108932;28;20127;-62
2023/05/03 12:16:42;;;;;;;13.07;6.60;;;14.50;98.20;;;;;;5095846;28;20051;-63
2023/05/03 12:19:09;;;;;;;16.88;6.57;;;14.60;98.20;;;;;;5095362;28;20040;-63
2023/05/03 12:21:37;;;;;;;15.63;6.82;;;14.70;97.90;;;;;;5095201;28;20044;-62
2023/05/03 12:24:08;;;;;;;14.38;7.05;;;14.60;98.00;;;;;;5094145;28;20097;-62
2023/05/03 12:26:36;;;;;;;14.48;7.90;;;14.70;97.90;;;;;;5095112;28;20042;-63
2023/05/03 12:29:03;;;;;;;13.52;7.50;;;14.70;97.80;;;;;;5095410;28;20036;-63
2023/05/03 12:31:32;;;;;;;20.88;7.32;;;14.70;97.60;;;;;;5094880;28;20036;-62
2023/05/03 12:34:00;;;;;;;16.40;6.70;;;14.70;97.40;;;;;;5095052;28;20056;-62
2023/05/03 12:36:47;;;;;;;12.65;7.60;;;14.80;97.30;;;;;;5109406;28;20443;-62
2023/05/03 12:39:14;;;;;;;14.05;7.75;;;14.90;97.10;;;;;;5114266;28;20044;-61
2023/05/03 12:41:42;;;;;;;13.95;7.72;;;14.90;97.20;;;;;;5114368;28;20071;-64
2023/05/03 12:44:28;;;;;;;14.00;8.18;;;14.90;96.90;;;;;;5114383;28;20088;-63
2023/05/03 12:47:00;;;;;;;13.65;8.10;;;14.80;97.10;;;;;;5114032;28;20055;-62